sensor_id;sensor_type;location;lat;lon;timestamp;temperature;humidity
7598;DHT22;3840;59.32098800;18.06423600;2023-02-01T00:02:17;-1.90;99.90
7598;DHT22;3840;59.32098800;18.06423600;2023-02-01T00:04:43;-1.90;99.90
7598;DHT22;3840;59.32098800;18.06423600;2023-02-01T00:07:09;-1.90;99.90
7598;DHT22;3840;59.32098800;18.06423600;2023-02-01T00:09:34;-1.80;99.90
7598;DHT22;3840;59.32098800;18.06423600;2023-02-01T00:12:00;-1.90;99.90
7598;DHT22;3840;59.32098800;18.06423600;2023-02-01T00:14:28;-1.80;99.90
7598;DHT22;3840;59.32098800;18.06423600;2023-02-01T00:16:54;-1.80;99.90
7598;DHT22;3840;59.32098800;18.06423600;2023-02-01T00:19:19;-1.70;99.90
7598;DHT22;3840;59.32098800;18.06423600;2023-02-01T00:21:45;-1.70;99.90
7598;DHT22;3840;59.32098800;18.06423600;2023-02-01T00:24:11;-1.70;99.90
7598;DHT22;3840;59.32098800;18.06423600;2023-02-01T00:26:40;-1.70;99.90
7598;DHT22;3840;59.32098800;18.06423600;2023-02-01T00:29:10;-1.70;99.90
7598;DHT22;3840;59.32098800;18.06423600;2023-02-01T00:31:36;-1.70;99.90
7598;DHT22;3840;59.32098800;18.06423600;2023-02-01T00:34:02;-1.70;99.90
7598;DHT22;3840;59.32098800;18.06423600;2023-02-01T00:36:28;-1.70;99.90
7598;DHT22;3840;59.32098800;18.06423600;2023-02-01T00:38:55;-1.60;99.90
7598;DHT22;3840;59.32098800;18.06423600;2023-02-01T00:41:21;-1.60;99.90
7598;DHT22;3840;59.32098800;18.06423600;2023-02-01T00:43:49;-1.60;99.90
7598;DHT22;3840;59.32098800;18.06423600;2023-02-01T00:46:17;-1.60;99.90
7598;DHT22;3840;59.32098800;18.06423600;2023-02-01T00:48:43;-1.70;99.90
7598;DHT22;3840;59.32098800;18.06423600;2023-02-01T00:51:12;-1.70;99.90
7598;DHT22;3840;59.32098800;18.06423600;2023-02-01T00:53:38;-1.70;99.90
7598;DHT22;3840;59.32098800;18.06423600;2023-02-01T00:56:04;-1.70;99.90
7598;DHT22;3840;59.32098800;18.06423600;2023-02-01T00:58:31;-1.70;99.90
7598;DHT22;3840;59.32098800;18.06423600;2023-02-01T01:01:09;-1.70;99.90
7598;DHT22;3840;59.32098800;18.06423600;2023-02-01T01:03:38;-1.80;99.90
7598;DHT22;3840;59.32098800;18.06423600;2023-02-01T01:06:09;-1.70;99.90
7598;DHT22;3840;59.32098800;18.06423600;2023-02-01T01:08:36;-1.70;99.90
7598;DHT22;3840;59.32098800;18.06423600;2023-02-01T01:11:06;-1.70;99.90
7598;DHT22;3840;59.32098800;18.06423600;2023-02-01T01:13:32;-1.70;99.90
7598;DHT22;3840;59.32098800;18.06423600;2023-02-01T01:16:04;-1.60;99.90
7598;DHT22;3840;59.32098800;18.06423600;2023-02-01T01:18:31;-1.60;99.90
7598;DHT22;3840;59.32098800;18.06423600;2023-02-01T01:20:58;-1.60;99.90
7598;DHT22;3840;59.32098800;18.06423600;2023-02-01T01:23:24;-1.60;99.90
7598;DHT22;3840;59.32098800;18.06423600;2023-02-01T01:25:49;-1.60;99.90
7598;DHT22;3840;59.32098800;18.06423600;2023-02-01T01:28:15;-1.50;99.90
7598;DHT22;3840;59.32098800;18.06423600;2023-02-01T01:30:41;-1.40;99.90
7598;DHT22;3840;59.32098800;18.06423600;2023-02-01T01:33:07;-1.40;99.90
7598;DHT22;3840;59.32098800;18.06423600;2023-02-01T01:35:33;-1.30;99.90
7598;DHT22;3840;59.32098800;18.06423600;2023-02-01T01:38:00;-1.20;99.90
7598;DHT22;3840;59.32098800;18.06423600;2023-02-01T01:40:27;-1.20;99.90
7598;DHT22;3840;59.32098800;18.06423600;2023-02-01T01:42:53;-1.20;99.90
7598;DHT22;3840;59.32098800;18.06423600;2023-02-01T01:48:20;-1.20;99.90
7598;DHT22;3840;59.32098800;18.06423600;2023-02-01T01:50:54;-1.20;99.90
7598;DHT22;3840;59.32098800;18.06423600;2023-02-01T01:53:31;-1.10;99.90
7598;DHT22;3840;59.32098800;18.06423600;2023-02-01T01:55:58;-1.10;99.90
7598;DHT22;3840;59.32098800;18.06423600;2023-02-01T01:58:26;-1.10;99.90
7598;DHT22;3840;59.32098800;18.06423600;2023-02-01T02:00:54;-1.20;99.90
7598;DHT22;3840;59.32098800;18.06423600;2023-02-01T02:03:40;-1.20;99.90
7598;DHT22;3840;59.32098800;18.06423600;2023-02-01T02:06:27;-1.10;99.90
7598;DHT22;3840;59.32098800;18.06423600;2023-02-01T02:08:55;-1.10;99.90
7598;DHT22;3840;59.32098800;18.06423600;2023-02-01T02:11:22;-1.10;99.90
7598;DHT22;3840;59.32098800;18.06423600;2023-02-01T02:13:50;-1.20;99.90
7598;DHT22;3840;59.32098800;18.06423600;2023-02-01T02:16:51;-1.20;99.90
7598;DHT22;3840;59.32098800;18.06423600;2023-02-01T02:27:58;-1.20;99.90
7598;DHT22;3840;59.32098800;18.06423600;2023-02-01T02:31:11;-1.10;99.90
7598;DHT22;3840;59.32098800;18.06423600;2023-02-01T02:50:41;-1.00;99.90
7598;DHT22;3840;59.32098800;18.06423600;2023-02-01T02:53:51;-1.00;99.90
7598;DHT22;3840;59.32098800;18.06423600;2023-02-01T02:56:38;-1.00;99.90
7598;DHT22;3840;59.32098800;18.06423600;2023-02-01T02:59:26;-0.90;99.90
7598;DHT22;3840;59.32098800;18.06423600;2023-02-01T03:02:13;-1.00;99.90
7598;DHT22;3840;59.32098800;18.06423600;2023-02-01T03:04:57;-1.00;99.90
7598;DHT22;3840;59.32098800;18.06423600;2023-02-01T03:10:50;-0.90;99.90
7598;DHT22;3840;59.32098800;18.06423600;2023-02-01T03:18:30;-0.90;99.90
7598;DHT22;3840;59.32098800;18.06423600;2023-02-01T03:21:00;-0.90;99.90
7598;DHT22;3840;59.32098800;18.06423600;2023-02-01T03:23:31;-0.70;99.90
7598;DHT22;3840;59.32098800;18.06423600;2023-02-01T03:25:59;-0.90;99.90
7598;DHT22;3840;59.32098800;18.06423600;2023-02-01T03:28:28;-0.90;99.90
7598;DHT22;3840;59.32098800;18.06423600;2023-02-01T03:30:55;-0.90;99.90
7598;DHT22;3840;59.32098800;18.06423600;2023-02-01T03:33:23;-0.90;99.90
7598;DHT22;3840;59.32098800;18.06423600;2023-02-01T03:38:37;-0.90;99.90
7598;DHT22;3840;59.32098800;18.06423600;2023-02-01T03:43:48;-0.80;99.90
7598;DHT22;3840;59.32098800;18.06423600;2023-02-01T03:46:27;-0.70;99.90
7598;DHT22;3840;59.32098800;18.06423600;2023-02-01T03:49:03;-0.70;99.90
7598;DHT22;3840;59.32098800;18.06423600;2023-02-01T03:51:31;-0.80;99.90
7598;DHT22;3840;59.32098800;18.06423600;2023-02-01T03:53:58;-0.70;99.90
7598;DHT22;3840;59.32098800;18.06423600;2023-02-01T03:56:25;-0.80;99.90
7598;DHT22;3840;59.32098800;18.06423600;2023-02-01T03:58:53;-0.70;99.90
7598;DHT22;3840;59.32098800;18.06423600;2023-02-01T04:01:29;-0.80;99.90
7598;DHT22;3840;59.32098800;18.06423600;2023-02-01T04:03:55;-0.70;99.90
7598;DHT22;3840;59.32098800;18.06423600;2023-02-01T04:06:21;-0.70;99.90
7598;DHT22;3840;59.32098800;18.06423600;2023-02-01T04:08:47;-0.70;99.90
7598;DHT22;3840;59.32098800;18.06423600;2023-02-01T04:11:12;-0.70;99.90
7598;DHT22;3840;59.32098800;18.06423600;2023-02-01T04:13:38;-0.70;99.90
7598;DHT22;3840;59.32098800;18.06423600;2023-02-01T04:16:04;-0.80;99.90
7598;DHT22;3840;59.32098800;18.06423600;2023-02-01T04:18:30;-0.80;99.90
7598;DHT22;3840;59.32098800;18.06423600;2023-02-01T04:20:55;-0.70;99.90
7598;DHT22;3840;59.32098800;18.06423600;2023-02-01T04:23:21;-0.80;99.90
7598;DHT22;3840;59.32098800;18.06423600;2023-02-01T04:25:47;-0.70;99.90
7598;DHT22;3840;59.32098800;18.06423600;2023-02-01T04:28:13;-0.70;99.90
7598;DHT22;3840;59.32098800;18.06423600;2023-02-01T04:30:38;-0.70;99.90
7598;DHT22;3840;59.32098800;18.06423600;2023-02-01T04:33:04;-0.70;99.90
7598;DHT22;3840;59.32098800;18.06423600;2023-02-01T04:35:34;-0.70;99.90
7598;DHT22;3840;59.32098800;18.06423600;2023-02-01T04:38:00;-0.70;99.90
7598;DHT22;3840;59.32098800;18.06423600;2023-02-01T04:40:26;-0.80;99.90
7598;DHT22;3840;59.32098800;18.06423600;2023-02-01T04:42:52;-0.80;99.90
7598;DHT22;3840;59.32098800;18.06423600;2023-02-01T04:45:18;-0.70;99.90
7598;DHT22;3840;59.32098800;18.06423600;2023-02-01T04:47:43;-0.70;99.90
7598;DHT22;3840;59.32098800;18.06423600;2023-02-01T04:50:10;-0.50;99.90
7598;DHT22;3840;59.32098800;18.06423600;2023-02-01T04:52:36;-0.60;99.90
7598;DHT22;3840;59.32098800;18.06423600;2023-02-01T04:55:03;-0.50;99.90
7598;DHT22;3840;59.32098800;18.06423600;2023-02-01T04:57:29;-0.50;99.90
7598;DHT22;3840;59.32098800;18.06423600;2023-02-01T04:59:54;-0.50;99.90
7598;DHT22;3840;59.32098800;18.06423600;2023-02-01T05:02:20;-0.50;99.90
7598;DHT22;3840;59.32098800;18.06423600;2023-02-01T05:04:46;-0.50;99.90
7598;DHT22;3840;59.32098800;18.06423600;2023-02-01T05:07:12;-0.30;99.90
7598;DHT22;3840;59.32098800;18.06423600;2023-02-01T05:09:37;-0.50;99.90
7598;DHT22;3840;59.32098800;18.06423600;2023-02-01T05:12:04;-0.50;99.90
7598;DHT22;3840;59.32098800;18.06423600;2023-02-01T05:14:49;-0.50;99.90
7598;DHT22;3840;59.32098800;18.06423600;2023-02-01T05:17:14;-0.40;99.90
7598;DHT22;3840;59.32098800;18.06423600;2023-02-01T05:19:41;-0.50;99.90
7598;DHT22;3840;59.32098800;18.06423600;2023-02-01T05:22:06;-0.40;99.90
7598;DHT22;3840;59.32098800;18.06423600;2023-02-01T05:24:32;-0.50;99.90
7598;DHT22;3840;59.32098800;18.06423600;2023-02-01T05:26:58;-0.50;99.90
7598;DHT22;3840;59.32098800;18.06423600;2023-02-01T05:29:23;-0.50;99.90
7598;DHT22;3840;59.32098800;18.06423600;2023-02-01T05:31:49;-0.50;99.90
7598;DHT22;3840;59.32098800;18.06423600;2023-02-01T05:34:15;-0.50;99.90
7598;DHT22;3840;59.32098800;18.06423600;2023-02-01T05:36:41;-0.50;99.90
7598;DHT22;3840;59.32098800;18.06423600;2023-02-01T05:39:07;-0.50;99.90
7598;DHT22;3840;59.32098800;18.06423600;2023-02-01T05:41:33;-0.30;99.90
7598;DHT22;3840;59.32098800;18.06423600;2023-02-01T05:43:59;-0.50;99.90
7598;DHT22;3840;59.32098800;18.06423600;2023-02-01T05:46:24;-0.40;99.90
7598;DHT22;3840;59.32098800;18.06423600;2023-02-01T05:48:50;-0.40;99.90
7598;DHT22;3840;59.32098800;18.06423600;2023-02-01T05:51:16;-0.40;99.90
7598;DHT22;3840;59.32098800;18.06423600;2023-02-01T05:53:41;-0.40;99.90
7598;DHT22;3840;59.32098800;18.06423600;2023-02-01T05:56:07;-0.40;99.90
7598;DHT22;3840;59.32098800;18.06423600;2023-02-01T05:58:33;-0.30;99.90
7598;DHT22;3840;59.32098800;18.06423600;2023-02-01T06:01:00;-0.20;99.90
7598;DHT22;3840;59.32098800;18.06423600;2023-02-01T06:03:26;-0.30;99.90
7598;DHT22;3840;59.32098800;18.06423600;2023-02-01T06:05:51;-0.30;99.90
7598;DHT22;3840;59.32098800;18.06423600;2023-02-01T06:08:17;-0.30;99.90
7598;DHT22;3840;59.32098800;18.06423600;2023-02-01T06:10:43;-0.30;99.90
7598;DHT22;3840;59.32098800;18.06423600;2023-02-01T06:13:09;-0.40;99.90
7598;DHT22;3840;59.32098800;18.06423600;2023-02-01T06:15:35;-0.40;99.90
7598;DHT22;3840;59.32098800;18.06423600;2023-02-01T06:18:03;-0.50;99.90
7598;DHT22;3840;59.32098800;18.06423600;2023-02-01T06:20:29;-0.40;99.90
7598;DHT22;3840;59.32098800;18.06423600;2023-02-01T06:22:55;-0.40;99.90
7598;DHT22;3840;59.32098800;18.06423600;2023-02-01T06:25:22;-0.40;99.90
7598;DHT22;3840;59.32098800;18.06423600;2023-02-01T06:27:48;-0.40;99.90
7598;DHT22;3840;59.32098800;18.06423600;2023-02-01T06:30:14;-0.40;99.90
7598;DHT22;3840;59.32098800;18.06423600;2023-02-01T06:32:40;-0.40;99.90
7598;DHT22;3840;59.32098800;18.06423600;2023-02-01T06:35:08;-0.40;99.90
7598;DHT22;3840;59.32098800;18.06423600;2023-02-01T06:37:36;-0.40;99.90
7598;DHT22;3840;59.32098800;18.06423600;2023-02-01T06:40:03;-0.40;99.90
7598;DHT22;3840;59.32098800;18.06423600;2023-02-01T06:42:29;-0.40;99.90
7598;DHT22;3840;59.32098800;18.06423600;2023-02-01T06:44:54;0.30;99.90
7598;DHT22;3840;59.32098800;18.06423600;2023-02-01T06:47:20;0.00;99.90
7598;DHT22;3840;59.32098800;18.06423600;2023-02-01T06:49:45;-0.20;99.90
7598;DHT22;3840;59.32098800;18.06423600;2023-02-01T06:52:11;-0.30;99.90
7598;DHT22;3840;59.32098800;18.06423600;2023-02-01T06:54:37;-0.30;99.90
7598;DHT22;3840;59.32098800;18.06423600;2023-02-01T06:57:03;-0.40;99.90
7598;DHT22;3840;59.32098800;18.06423600;2023-02-01T06:59:29;-0.40;99.90
7598;DHT22;3840;59.32098800;18.06423600;2023-02-01T07:01:54;-0.40;99.90
7598;DHT22;3840;59.32098800;18.06423600;2023-02-01T07:04:20;-0.40;99.90
7598;DHT22;3840;59.32098800;18.06423600;2023-02-01T07:06:46;-0.40;99.90
7598;DHT22;3840;59.32098800;18.06423600;2023-02-01T07:09:12;-0.40;99.90
7598;DHT22;3840;59.32098800;18.06423600;2023-02-01T07:11:39;-0.40;99.90
7598;DHT22;3840;59.32098800;18.06423600;2023-02-01T07:14:09;-0.30;99.90
7598;DHT22;3840;59.32098800;18.06423600;2023-02-01T07:16:35;-0.40;99.90
7598;DHT22;3840;59.32098800;18.06423600;2023-02-01T07:19:00;-0.40;99.90
7598;DHT22;3840;59.32098800;18.06423600;2023-02-01T07:21:27;-0.30;99.90
7598;DHT22;3840;59.32098800;18.06423600;2023-02-01T07:23:54;-0.40;99.90
7598;DHT22;3840;59.32098800;18.06423600;2023-02-01T07:26:20;-0.40;99.90
7598;DHT22;3840;59.32098800;18.06423600;2023-02-01T07:28:46;-0.40;99.90
7598;DHT22;3840;59.32098800;18.06423600;2023-02-01T07:31:18;-0.40;99.90
7598;DHT22;3840;59.32098800;18.06423600;2023-02-01T07:33:46;-0.40;99.90
7598;DHT22;3840;59.32098800;18.06423600;2023-02-01T07:36:14;-0.40;99.90
7598;DHT22;3840;59.32098800;18.06423600;2023-02-01T07:38:40;-0.30;99.90
7598;DHT22;3840;59.32098800;18.06423600;2023-02-01T07:41:07;-0.30;99.90
7598;DHT22;3840;59.32098800;18.06423600;2023-02-01T07:43:34;-0.30;99.90
7598;DHT22;3840;59.32098800;18.06423600;2023-02-01T07:46:00;-0.30;99.90
7598;DHT22;3840;59.32098800;18.06423600;2023-02-01T07:48:27;-0.20;99.90
7598;DHT22;3840;59.32098800;18.06423600;2023-02-01T07:51:02;-0.10;99.90
7598;DHT22;3840;59.32098800;18.06423600;2023-02-01T07:53:29;-0.10;99.90
7598;DHT22;3840;59.32098800;18.06423600;2023-02-01T07:55:55;0.00;99.90
7598;DHT22;3840;59.32098800;18.06423600;2023-02-01T07:58:22;-0.10;99.90
7598;DHT22;3840;59.32098800;18.06423600;2023-02-01T08:00:48;-0.10;99.90
7598;DHT22;3840;59.32098800;18.06423600;2023-02-01T08:03:32;0.00;99.90
7598;DHT22;3840;59.32098800;18.06423600;2023-02-01T08:05:58;0.00;99.90
7598;DHT22;3840;59.32098800;18.06423600;2023-02-01T08:08:24;0.00;99.90
7598;DHT22;3840;59.32098800;18.06423600;2023-02-01T08:10:50;0.00;99.90
7598;DHT22;3840;59.32098800;18.06423600;2023-02-01T08:13:16;0.00;99.90
7598;DHT22;3840;59.32098800;18.06423600;2023-02-01T08:15:42;0.00;99.90
7598;DHT22;3840;59.32098800;18.06423600;2023-02-01T08:18:07;0.00;99.90
7598;DHT22;3840;59.32098800;18.06423600;2023-02-01T08:20:35;0.00;99.90
7598;DHT22;3840;59.32098800;18.06423600;2023-02-01T08:23:02;0.10;99.90
7598;DHT22;3840;59.32098800;18.06423600;2023-02-01T08:25:28;0.20;99.90
7598;DHT22;3840;59.32098800;18.06423600;2023-02-01T08:27:53;0.10;99.90
7598;DHT22;3840;59.32098800;18.06423600;2023-02-01T08:30:20;0.10;99.90
7598;DHT22;3840;59.32098800;18.06423600;2023-02-01T08:32:47;0.10;99.90
7598;DHT22;3840;59.32098800;18.06423600;2023-02-01T08:35:13;0.20;99.90
7598;DHT22;3840;59.32098800;18.06423600;2023-02-01T08:37:39;0.20;99.90
7598;DHT22;3840;59.32098800;18.06423600;2023-02-01T08:40:05;0.10;99.90
7598;DHT22;3840;59.32098800;18.06423600;2023-02-01T08:42:31;0.20;99.90
7598;DHT22;3840;59.32098800;18.06423600;2023-02-01T08:45:17;0.20;99.90
7598;DHT22;3840;59.32098800;18.06423600;2023-02-01T08:47:44;0.20;99.90
7598;DHT22;3840;59.32098800;18.06423600;2023-02-01T08:50:10;0.20;99.90
7598;DHT22;3840;59.32098800;18.06423600;2023-02-01T08:52:36;0.10;99.90
7598;DHT22;3840;59.32098800;18.06423600;2023-02-01T08:55:02;0.30;99.90
7598;DHT22;3840;59.32098800;18.06423600;2023-02-01T08:57:27;0.40;99.90
7598;DHT22;3840;59.32098800;18.06423600;2023-02-01T08:59:54;0.50;99.90
7598;DHT22;3840;59.32098800;18.06423600;2023-02-01T09:02:19;0.50;99.90
7598;DHT22;3840;59.32098800;18.06423600;2023-02-01T09:04:45;0.40;99.90
7598;DHT22;3840;59.32098800;18.06423600;2023-02-01T09:07:11;0.50;99.90
7598;DHT22;3840;59.32098800;18.06423600;2023-02-01T09:09:38;0.50;99.90
7598;DHT22;3840;59.32098800;18.06423600;2023-02-01T09:12:04;0.50;99.90
7598;DHT22;3840;59.32098800;18.06423600;2023-02-01T09:14:30;0.60;99.90
7598;DHT22;3840;59.32098800;18.06423600;2023-02-01T09:16:56;0.50;99.90
7598;DHT22;3840;59.32098800;18.06423600;2023-02-01T09:19:22;0.50;99.90
7598;DHT22;3840;59.32098800;18.06423600;2023-02-01T09:21:48;0.40;99.90
7598;DHT22;3840;59.32098800;18.06423600;2023-02-01T09:24:14;0.50;99.90
7598;DHT22;3840;59.32098800;18.06423600;2023-02-01T09:26:39;0.50;99.90
7598;DHT22;3840;59.32098800;18.06423600;2023-02-01T09:29:05;0.50;99.90
7598;DHT22;3840;59.32098800;18.06423600;2023-02-01T09:31:39;0.60;99.90
7598;DHT22;3840;59.32098800;18.06423600;2023-02-01T09:34:05;0.50;99.90
7598;DHT22;3840;59.32098800;18.06423600;2023-02-01T09:36:33;0.60;99.90
7598;DHT22;3840;59.32098800;18.06423600;2023-02-01T09:38:59;0.60;99.90
7598;DHT22;3840;59.32098800;18.06423600;2023-02-01T09:41:41;0.60;99.90
7598;DHT22;3840;59.32098800;18.06423600;2023-02-01T09:46:55;0.50;99.90
7598;DHT22;3840;59.32098800;18.06423600;2023-02-01T09:49:33;0.50;99.90
7598;DHT22;3840;59.32098800;18.06423600;2023-02-01T09:52:04;0.50;99.90
7598;DHT22;3840;59.32098800;18.06423600;2023-02-01T09:55:07;0.50;99.90
7598;DHT22;3840;59.32098800;18.06423600;2023-02-01T09:57:49;0.50;99.90
7598;DHT22;3840;59.32098800;18.06423600;2023-02-01T10:00:29;0.50;99.90
7598;DHT22;3840;59.32098800;18.06423600;2023-02-01T10:02:55;0.60;99.90
7598;DHT22;3840;59.32098800;18.06423600;2023-02-01T10:10:47;0.60;99.90
7598;DHT22;3840;59.32098800;18.06423600;2023-02-01T10:13:21;0.60;99.90
7598;DHT22;3840;59.32098800;18.06423600;2023-02-01T10:24:36;0.80;99.90
7598;DHT22;3840;59.32098800;18.06423600;2023-02-01T10:27:19;0.80;99.90
7598;DHT22;3840;59.32098800;18.06423600;2023-02-01T10:29:55;0.70;99.90
7598;DHT22;3840;59.32098800;18.06423600;2023-02-01T10:32:29;0.70;99.90
7598;DHT22;3840;59.32098800;18.06423600;2023-02-01T10:35:00;0.70;99.90
7598;DHT22;3840;59.32098800;18.06423600;2023-02-01T10:37:28;0.70;99.90
7598;DHT22;3840;59.32098800;18.06423600;2023-02-01T10:39:56;0.70;99.90
7598;DHT22;3840;59.32098800;18.06423600;2023-02-01T10:42:29;0.80;99.90
7598;DHT22;3840;59.32098800;18.06423600;2023-02-01T10:44:58;0.80;99.90
7598;DHT22;3840;59.32098800;18.06423600;2023-02-01T10:47:25;0.80;99.90
7598;DHT22;3840;59.32098800;18.06423600;2023-02-01T10:52:54;0.70;99.90
7598;DHT22;3840;59.32098800;18.06423600;2023-02-01T10:57:59;0.80;99.90
7598;DHT22;3840;59.32098800;18.06423600;2023-02-01T11:00:26;0.90;99.90
7598;DHT22;3840;59.32098800;18.06423600;2023-02-01T11:02:53;0.80;99.90
7598;DHT22;3840;59.32098800;18.06423600;2023-02-01T11:05:19;0.80;99.90
7598;DHT22;3840;59.32098800;18.06423600;2023-02-01T11:07:53;0.80;99.90
7598;DHT22;3840;59.32098800;18.06423600;2023-02-01T11:10:41;0.80;99.90
7598;DHT22;3840;59.32098800;18.06423600;2023-02-01T11:13:15;0.80;99.90
7598;DHT22;3840;59.32098800;18.06423600;2023-02-01T11:15:45;0.90;99.90
7598;DHT22;3840;59.32098800;18.06423600;2023-02-01T11:18:27;0.90;99.90
7598;DHT22;3840;59.32098800;18.06423600;2023-02-01T11:20:53;1.00;99.90
7598;DHT22;3840;59.32098800;18.06423600;2023-02-01T11:23:31;1.00;99.90
7598;DHT22;3840;59.32098800;18.06423600;2023-02-01T11:26:12;0.90;99.90
7598;DHT22;3840;59.32098800;18.06423600;2023-02-01T11:28:40;0.80;99.90
7598;DHT22;3840;59.32098800;18.06423600;2023-02-01T11:31:11;0.80;99.90
7598;DHT22;3840;59.32098800;18.06423600;2023-02-01T11:33:39;0.90;99.90
7598;DHT22;3840;59.32098800;18.06423600;2023-02-01T11:36:14;1.00;99.90
7598;DHT22;3840;59.32098800;18.06423600;2023-02-01T11:39:32;1.00;99.90
7598;DHT22;3840;59.32098800;18.06423600;2023-02-01T11:41:34;1.00;99.90
7598;DHT22;3840;59.32098800;18.06423600;2023-02-01T11:44:22;1.10;99.90
7598;DHT22;3840;59.32098800;18.06423600;2023-02-01T11:46:50;1.40;99.90
7598;DHT22;3840;59.32098800;18.06423600;2023-02-01T11:49:23;1.20;99.90
7598;DHT22;3840;59.32098800;18.06423600;2023-02-01T12:00:22;1.20;99.90
7598;DHT22;3840;59.32098800;18.06423600;2023-02-01T12:03:07;1.10;99.90
7598;DHT22;3840;59.32098800;18.06423600;2023-02-01T12:11:24;1.00;99.90
7598;DHT22;3840;59.32098800;18.06423600;2023-02-01T12:21:57;1.00;99.90
7598;DHT22;3840;59.32098800;18.06423600;2023-02-01T12:24:38;0.90;99.90
7598;DHT22;3840;59.32098800;18.06423600;2023-02-01T12:48:55;0.90;99.90
7598;DHT22;3840;59.32098800;18.06423600;2023-02-01T12:51:26;0.80;99.90
7598;DHT22;3840;59.32098800;18.06423600;2023-02-01T12:56:39;0.60;99.90
7598;DHT22;3840;59.32098800;18.06423600;2023-02-01T13:01:53;0.70;99.90
7598;DHT22;3840;59.32098800;18.06423600;2023-02-01T13:04:38;0.70;99.90
7598;DHT22;3840;59.32098800;18.06423600;2023-02-01T13:07:22;0.80;99.90
7598;DHT22;3840;59.32098800;18.06423600;2023-02-01T13:09:53;0.90;99.90
7598;DHT22;3840;59.32098800;18.06423600;2023-02-01T13:12:34;0.90;99.90
7598;DHT22;3840;59.32098800;18.06423600;2023-02-01T13:15:17;0.90;99.90
7598;DHT22;3840;59.32098800;18.06423600;2023-02-01T13:17:46;0.80;99.90
7598;DHT22;3840;59.32098800;18.06423600;2023-02-01T13:25:35;0.80;99.90
7598;DHT22;3840;59.32098800;18.06423600;2023-02-01T13:43:02;1.00;99.90
7598;DHT22;3840;59.32098800;18.06423600;2023-02-01T13:45:34;0.70;99.90
7598;DHT22;3840;59.32098800;18.06423600;2023-02-01T13:48:04;0.70;99.90
7598;DHT22;3840;59.32098800;18.06423600;2023-02-01T13:50:37;0.70;99.90
7598;DHT22;3840;59.32098800;18.06423600;2023-02-01T13:55:43;0.60;99.90
7598;DHT22;3840;59.32098800;18.06423600;2023-02-01T14:00:44;0.40;99.90
7598;DHT22;3840;59.32098800;18.06423600;2023-02-01T14:03:15;0.30;99.90
7598;DHT22;3840;59.32098800;18.06423600;2023-02-01T14:11:37;0.20;99.90
7598;DHT22;3840;59.32098800;18.06423600;2023-02-01T14:19:29;0.20;99.90
7598;DHT22;3840;59.32098800;18.06423600;2023-02-01T14:24:55;0.30;99.90
7598;DHT22;3840;59.32098800;18.06423600;2023-02-01T14:27:25;0.30;99.90
7598;DHT22;3840;59.32098800;18.06423600;2023-02-01T14:30:04;0.20;99.90
7598;DHT22;3840;59.32098800;18.06423600;2023-02-01T14:32:39;0.10;99.90
7598;DHT22;3840;59.32098800;18.06423600;2023-02-01T14:35:20;0.10;99.90
7598;DHT22;3840;59.32098800;18.06423600;2023-02-01T14:37:51;0.00;99.90
7598;DHT22;3840;59.32098800;18.06423600;2023-02-01T14:40:26;-0.10;99.90
7598;DHT22;3840;59.32098800;18.06423600;2023-02-01T14:42:53;0.00;99.90
7598;DHT22;3840;59.32098800;18.06423600;2023-02-01T15:01:18;-0.20;99.90
7598;DHT22;3840;59.32098800;18.06423600;2023-02-01T15:04:06;-0.20;99.90
7598;DHT22;3840;59.32098800;18.06423600;2023-02-01T15:06:33;-0.20;99.90
7598;DHT22;3840;59.32098800;18.06423600;2023-02-01T15:09:43;-0.20;99.90
7598;DHT22;3840;59.32098800;18.06423600;2023-02-01T15:14:48;-0.10;99.90
7598;DHT22;3840;59.32098800;18.06423600;2023-02-01T15:17:29;-0.20;99.90
7598;DHT22;3840;59.32098800;18.06423600;2023-02-01T15:22:37;0.00;99.90
7598;DHT22;3840;59.32098800;18.06423600;2023-02-01T15:25:03;0.00;99.90
7598;DHT22;3840;59.32098800;18.06423600;2023-02-01T15:27:30;0.00;99.90
7598;DHT22;3840;59.32098800;18.06423600;2023-02-01T15:30:08;0.00;99.90
7598;DHT22;3840;59.32098800;18.06423600;2023-02-01T15:32:39;0.00;99.90
7598;DHT22;3840;59.32098800;18.06423600;2023-02-01T15:35:30;0.00;99.90
7598;DHT22;3840;59.32098800;18.06423600;2023-02-01T15:37:52;0.00;99.90
7598;DHT22;3840;59.32098800;18.06423600;2023-02-01T15:40:21;-0.10;99.90
7598;DHT22;3840;59.32098800;18.06423600;2023-02-01T15:42:54;-0.10;99.90
7598;DHT22;3840;59.32098800;18.06423600;2023-02-01T15:45:26;-0.10;99.90
7598;DHT22;3840;59.32098800;18.06423600;2023-02-01T15:47:55;-0.10;99.90
7598;DHT22;3840;59.32098800;18.06423600;2023-02-01T15:50:21;-0.10;99.90
7598;DHT22;3840;59.32098800;18.06423600;2023-02-01T15:52:50;-0.10;99.90
7598;DHT22;3840;59.32098800;18.06423600;2023-02-01T15:55:39;0.00;99.90
7598;DHT22;3840;59.32098800;18.06423600;2023-02-01T15:58:18;-0.10;99.90
7598;DHT22;3840;59.32098800;18.06423600;2023-02-01T16:00:51;-0.20;99.90
7598;DHT22;3840;59.32098800;18.06423600;2023-02-01T16:03:40;-0.20;99.90
7598;DHT22;3840;59.32098800;18.06423600;2023-02-01T16:06:31;-0.20;99.90
7598;DHT22;3840;59.32098800;18.06423600;2023-02-01T16:11:33;-0.30;99.90
7598;DHT22;3840;59.32098800;18.06423600;2023-02-01T16:14:05;0.30;99.90
7598;DHT22;3840;59.32098800;18.06423600;2023-02-01T16:16:30;-0.20;99.90
7598;DHT22;3840;59.32098800;18.06423600;2023-02-01T16:18:56;-0.10;99.90
7598;DHT22;3840;59.32098800;18.06423600;2023-02-01T16:21:22;-0.20;99.90
7598;DHT22;3840;59.32098800;18.06423600;2023-02-01T16:23:52;-0.20;99.90
7598;DHT22;3840;59.32098800;18.06423600;2023-02-01T16:26:18;-0.30;99.90
7598;DHT22;3840;59.32098800;18.06423600;2023-02-01T16:28:44;-0.30;99.90
7598;DHT22;3840;59.32098800;18.06423600;2023-02-01T16:31:15;-0.20;99.90
7598;DHT22;3840;59.32098800;18.06423600;2023-02-01T16:33:51;-0.20;99.90
7598;DHT22;3840;59.32098800;18.06423600;2023-02-01T16:36:17;-0.20;99.90
7598;DHT22;3840;59.32098800;18.06423600;2023-02-01T16:38:44;-0.10;99.90
7598;DHT22;3840;59.32098800;18.06423600;2023-02-01T16:41:19;-0.10;99.90
7598;DHT22;3840;59.32098800;18.06423600;2023-02-01T16:43:45;-0.20;99.90
7598;DHT22;3840;59.32098800;18.06423600;2023-02-01T16:46:16;-0.20;99.90
7598;DHT22;3840;59.32098800;18.06423600;2023-02-01T16:48:45;-0.20;99.90
7598;DHT22;3840;59.32098800;18.06423600;2023-02-01T16:51:16;-0.20;99.90
7598;DHT22;3840;59.32098800;18.06423600;2023-02-01T16:53:43;-0.20;99.90